Altus, OK

8:19 PM CDT on August 29, 2016 (GMT -0500)
Airplane Park | | Change Station

Elev 1391 ft 34.64 °N, 99.32 °W | Updated 32 seconds ago

Clear
Clear
86.4 °F
Feels Like 90 °F
N
3.6
Wind Variable Wind from NNW
Gusts 4.9 mph

Today
High -- | Low -- °F
--% Chance of Precip.
Yesterday
High -- | Low -- °F
Precip. -- in
Pressure 30.01 in
Visibility 10.0 miles
Clouds Clear
Heat Index 90 °F
Dew Point 68 °F
Humidity 54%
Rainfall 0.00 in
Snow Depth Not available.
7:08 AM 8:06 PM
Waning Crescent, 6% visible
METAR KLTS 300058Z AUTO 02006KT 10SM CLR 28/18 A3005 RMK AO2 SLP163 T02790179
Pressure 30.01 in
Visibility 10.0 miles
Clouds Clear
Heat Index 90 °F
Dew Point 68 °F
Humidity 54%
Rainfall 0.00 in
Snow Depth Not available.
7:08 AM 8:06 PM
Waning Crescent, 6% visible
METAR KLTS 300058Z AUTO 02006KT 10SM CLR 28/18 A3005 RMK AO2 SLP163 T02790179

10-Day Weather Forecast

Almanac

Astronomy

Aug. 29, 2016 Rise Set
Actual Time
Civil Twilight
Nautical Twilight
Astronomical Twilight
Moon
Length of Visible Light
Length of Day
Tomorrow will be .
, % of the Moon is Illuminated

Today's Extremes

State Highs State Lows

Community

WunderPhotos

Upload Photos

1,935,709 photos uploaded!

WunderBlog® & News

Nearby

Air Quality

  Air Quality AQ Index Pollutant
Not available.

Snow Depth

Station Depth Elevation

Earthquake Activity

City Distance Mag. Time & Date
Minimum magnitude displayed is 2.5.

Coastal Water Temperatures

Place Temperature

Stations

Nearby Weather Stations

Station Location Temp. Windchill Dew Point Humidity Wind Precip. Elev Updated Type
                   

Watches & Warnings

There are currently no watches in effect.